New Haven, Connecticut
Current Conditions -  °F | °C
As of 1:53 AM on Sunday 21 Dec 2014 (Local Time) from KHVN Reporting Station
Light Snow Light Snow  
Wind Chill: 35°   Ceiling: 1600
Heat Index: 35°   Visibility: 3mi
Dew Point: 25°   Wind: 3mph
Humidity: 67%   Direction: 20°NNE
Pressure: 30.28"   Gusts: NA
Location:  41.31°N, 72.92°W
Report Text: KHVN 210653Z AUTO 02003KT 3SM -SN OVC016 02/M04 A3028 RMK AO2 SNB49 SLP252 P0000 T00171039
Loading
Personal Weather Stations






























Interactive Weather Map New forecast layout! Learn more

10-Day Weather Forecast

Advertisements
Track Severe Weather on mobile